createdAt,value
2022-11-03T00:01:48.785Z,12.33
2022-11-03T00:06:56.915Z,14.77
2022-11-03T00:12:04.891Z,13.60
2022-11-03T00:17:13.518Z,12.40
2022-11-03T00:22:21.393Z,12.60
2022-11-03T00:27:29.531Z,12.83
2022-11-03T00:32:37.338Z,13.57
2022-11-03T00:37:45.136Z,12.83
2022-11-03T00:42:52.939Z,11.43
2022-11-03T00:48:03.572Z,11.30
2022-11-03T00:53:11.959Z,11.83
2022-11-03T00:58:19.764Z,10.87
2022-11-03T01:03:28.228Z,11.57
2022-11-03T01:08:36.851Z,9.10
2022-11-03T01:13:44.674Z,10.13
2022-11-03T01:18:52.527Z,9.33
2022-11-03T01:24:02.346Z,10.67
2022-11-03T01:29:11.288Z,9.87
2022-11-03T01:34:20.524Z,11.43
2022-11-03T01:39:28.362Z,10.17
2022-11-03T01:44:38.418Z,10.07
2022-11-03T01:49:50.446Z,9.47
2022-11-03T01:55:00.685Z,10.37
2022-11-03T02:00:09.158Z,10.43
2022-11-03T02:05:17.258Z,10.50
2022-11-03T02:10:25.697Z,10.20
2022-11-03T02:15:34.532Z,9.43
2022-11-03T02:20:42.818Z,10.93
2022-11-03T02:25:53.544Z,10.10
2022-11-03T02:31:05.230Z,9.50
2022-11-03T02:36:16.147Z,9.40
2022-11-03T02:41:25.102Z,10.63
2022-11-03T02:46:33.513Z,11.53
2022-11-03T02:51:41.558Z,12.63
2022-11-03T02:56:51.619Z,14.03
2022-11-03T03:02:02.682Z,12.47
2022-11-03T03:07:13.816Z,13.23
2022-11-03T03:12:21.777Z,12.30
2022-11-03T03:17:33.116Z,12.70
2022-11-03T03:22:44.056Z,12.20
2022-11-03T03:27:52.764Z,12.47
2022-11-03T03:33:00.963Z,11.30
2022-11-03T03:38:12.280Z,9.27
2022-11-03T03:43:21.181Z,10.47
2022-11-03T03:48:28.966Z,11.77
2022-11-03T03:53:37.539Z,10.80
2022-11-03T03:58:46.210Z,10.63
2022-11-03T04:03:54.090Z,10.97
2022-11-03T04:09:01.877Z,11.97
2022-11-03T04:14:12.190Z,10.33
2022-11-03T04:19:21.507Z,9.37
2022-11-03T04:24:30.695Z,10.20
2022-11-03T04:29:39.383Z,10.47
2022-11-03T04:34:48.035Z,11.00
2022-11-03T04:39:59.028Z,10.57
2022-11-03T04:45:09.776Z,9.73
2022-11-03T04:50:21.296Z,9.23
2022-11-03T04:55:29.925Z,9.93
2022-11-03T05:00:37.743Z,10.23
2022-11-03T05:05:47.954Z,9.87
2022-11-03T05:10:55.927Z,10.00
2022-11-03T05:16:06.159Z,10.20
2022-11-03T05:21:16.641Z,11.23
2022-11-03T05:26:25.862Z,10.40
2022-11-03T05:31:35.619Z,11.20
2022-11-03T05:36:43.933Z,14.00
2022-11-03T05:41:52.825Z,12.37
2022-11-03T05:47:04.482Z,12.10
2022-11-03T05:52:13.791Z,11.07
2022-11-03T05:57:21.588Z,11.93
2022-11-03T06:02:33.159Z,11.20
2022-11-03T06:07:41.089Z,11.10
2022-11-03T06:12:49.475Z,10.90
2022-11-03T06:17:57.807Z,11.77
2022-11-03T06:23:07.130Z,11.63
2022-11-03T06:28:18.216Z,11.37
2022-11-03T06:33:29.918Z,11.30
2022-11-03T06:38:37.719Z,10.10
2022-11-03T06:43:45.542Z,11.90
2022-11-03T06:48:55.064Z,11.33
2022-11-03T06:54:03.896Z,10.80
2022-11-03T06:59:12.087Z,12.70
2022-11-03T07:04:22.011Z,11.77
2022-11-03T07:09:30.338Z,11.50
2022-11-03T07:14:38.917Z,10.83
2022-11-03T07:19:46.969Z,10.00
2022-11-03T07:24:57.587Z,9.57
2022-11-03T07:30:09.498Z,9.77
2022-11-03T07:35:23.683Z,10.77
2022-11-03T07:40:34.244Z,11.87
2022-11-03T07:45:45.311Z,12.83
2022-11-03T07:50:55.040Z,12.70
2022-11-03T07:56:04.088Z,12.97
2022-11-03T08:01:15.110Z,12.73
2022-11-03T08:06:22.937Z,11.50
2022-11-03T08:11:30.822Z,11.53
2022-11-03T08:16:39.712Z,8.90
2022-11-03T08:21:48.053Z,8.10
2022-11-03T08:26:55.969Z,9.40
2022-11-03T08:32:03.948Z,7.70
2022-11-03T08:37:11.747Z,5.47
2022-11-03T08:42:19.708Z,4.63
2022-11-03T08:47:27.646Z,4.10
2022-11-03T08:52:36.057Z,4.43
2022-11-03T08:57:43.864Z,4.40
2022-11-03T09:02:52.024Z,4.77
2022-11-03T09:13:10.667Z,2.90
2022-11-03T09:18:18.589Z,3.60
2022-11-03T09:23:26.396Z,2.90
2022-11-03T09:28:34.784Z,3.13
2022-11-03T09:33:44.213Z,3.43
2022-11-03T09:38:52.338Z,3.07
2022-11-03T09:44:00.647Z,2.73
2022-11-03T09:49:08.491Z,2.47
2022-11-03T09:54:17.259Z,1.80
2022-11-03T09:59:25.363Z,1.80
2022-11-03T10:04:33.491Z,2.43
2022-11-03T10:09:44.555Z,2.30
2022-11-03T10:14:52.776Z,2.10
2022-11-03T10:20:01.187Z,2.70
2022-11-03T10:25:12.116Z,2.77
2022-11-03T10:30:20.022Z,3.07
2022-11-03T10:35:31.467Z,3.60
2022-11-03T10:40:47.762Z,2.60
2022-11-03T10:45:56.396Z,3.07
2022-11-03T10:51:05.033Z,2.73
2022-11-03T10:56:12.914Z,3.17
2022-11-03T11:01:21.219Z,3.20
2022-11-03T11:06:30.666Z,2.50
2022-11-03T11:11:38.856Z,2.83
2022-11-03T11:16:50.459Z,3.03
2022-11-03T11:22:01.056Z,2.87
2022-11-03T11:27:12.009Z,2.70
2022-11-03T11:32:23.031Z,2.77
2022-11-03T11:42:46.186Z,2.37
2022-11-03T11:47:54.171Z,2.50
2022-11-03T11:58:19.675Z,2.33
2022-11-03T12:03:30.839Z,2.70
2022-11-03T12:08:39.815Z,2.30
2022-11-03T12:13:52.037Z,3.00
2022-11-03T12:19:04.187Z,3.30
2022-11-03T12:24:16.170Z,2.57
2022-11-03T12:29:24.638Z,2.60
2022-11-03T12:34:33.652Z,3.10
2022-11-03T12:39:42.729Z,3.10
2022-11-03T12:44:50.654Z,2.90
2022-11-03T12:49:58.471Z,2.80
2022-11-03T12:55:07.185Z,2.60
2022-11-03T13:00:15.999Z,2.80
2022-11-03T13:05:25.560Z,2.80
2022-11-03T13:10:33.414Z,2.93
2022-11-03T13:15:42.284Z,3.57
2022-11-03T13:20:50.177Z,3.00
2022-11-03T13:25:58.101Z,2.63
2022-11-03T13:31:06.291Z,2.70
2022-11-03T13:36:14.226Z,3.10
2022-11-03T13:41:22.372Z,3.03
2022-11-03T13:46:30.783Z,2.93
2022-11-03T13:51:38.593Z,2.67
2022-11-03T14:07:07.208Z,3.27
2022-11-03T14:12:16.663Z,2.80
2022-11-03T14:17:25.270Z,3.13
2022-11-03T14:22:33.736Z,3.70
2022-11-03T14:27:41.633Z,3.83
2022-11-03T14:32:49.596Z,3.10
2022-11-03T14:37:59.363Z,3.07
2022-11-03T14:43:07.584Z,3.10
2022-11-03T14:48:15.807Z,3.50
2022-11-03T14:53:23.624Z,2.93
2022-11-03T14:58:31.414Z,3.33
2022-11-03T15:03:40.259Z,4.80
2022-11-03T15:08:52.009Z,4.60
2022-11-03T15:13:57.776Z,5.23
2022-11-03T15:19:06.193Z,4.30
2022-11-03T15:29:24.849Z,5.07
2022-11-03T15:34:33.265Z,5.97
2022-11-03T15:39:41.114Z,5.13
2022-11-03T15:44:49.592Z,5.60
2022-11-03T15:49:57.839Z,4.70
2022-11-03T15:55:08.125Z,4.73
2022-11-03T16:00:16.199Z,5.63
2022-11-03T16:05:25.432Z,7.30
2022-11-03T16:10:34.214Z,5.67
2022-11-03T16:15:42.055Z,6.87
2022-11-03T16:20:49.974Z,7.17
2022-11-03T16:25:58.942Z,8.07
2022-11-03T16:31:07.881Z,7.60
2022-11-03T16:36:15.803Z,6.60
2022-11-03T16:41:29.767Z,7.10
2022-11-03T16:46:38.186Z,7.67
2022-11-03T16:51:47.129Z,6.90
2022-11-03T16:56:55.312Z,7.23
2022-11-03T17:02:03.713Z,7.40
2022-11-03T17:07:11.824Z,7.43
2022-11-03T17:12:19.842Z,6.80
2022-11-03T17:17:28.003Z,7.17
2022-11-03T17:22:35.953Z,6.83
2022-11-03T17:33:02.057Z,7.30
2022-11-03T17:38:14.127Z,7.13
2022-11-03T17:43:26.398Z,7.17
2022-11-03T17:48:35.317Z,7.47
2022-11-03T17:53:44.653Z,8.00
2022-11-03T17:58:52.687Z,8.20
2022-11-03T18:04:00.575Z,8.83
2022-11-03T18:09:09.157Z,8.43
2022-11-03T18:14:17.303Z,8.80
2022-11-03T18:19:26.157Z,8.93
2022-11-03T18:24:33.996Z,9.90
2022-11-03T18:29:42.478Z,10.37
2022-11-03T18:34:51.299Z,9.90
2022-11-03T18:39:59.671Z,9.63
2022-11-03T18:45:10.886Z,11.50
2022-11-03T18:50:19.230Z,10.30
2022-11-03T18:55:27.745Z,10.10
2022-11-03T19:00:38.980Z,9.93
2022-11-03T19:05:48.106Z,9.90
2022-11-03T19:10:57.754Z,10.40
2022-11-03T19:16:08.957Z,10.80
2022-11-03T19:21:18.539Z,10.47
2022-11-03T19:26:29.658Z,11.83
2022-11-03T19:31:40.327Z,12.20
2022-11-03T19:36:48.686Z,13.27
2022-11-03T19:42:00.398Z,14.73
2022-11-03T19:47:08.429Z,16.73
2022-11-03T19:52:17.263Z,14.60
2022-11-03T19:57:25.202Z,13.40
2022-11-03T20:02:35.037Z,13.50
2022-11-03T20:07:43.564Z,12.70
2022-11-03T20:12:52.058Z,12.03
2022-11-03T20:18:02.174Z,11.83
2022-11-03T20:23:15.817Z,14.30
2022-11-03T20:33:38.010Z,12.13
2022-11-03T20:38:48.558Z,12.17
2022-11-03T20:43:56.965Z,11.47
2022-11-03T20:49:05.267Z,13.50
2022-11-03T20:54:16.198Z,13.80
2022-11-03T20:59:25.847Z,12.23
2022-11-03T21:04:37.587Z,11.93
2022-11-03T21:09:46.274Z,13.13
2022-11-03T21:15:00.342Z,12.40
2022-11-03T21:20:11.331Z,13.73
2022-11-03T21:25:21.988Z,13.43
2022-11-03T21:30:30.439Z,12.10
2022-11-03T21:35:38.591Z,13.13
2022-11-03T21:40:53.712Z,13.60
2022-11-03T21:46:01.776Z,13.43
2022-11-03T21:51:10.035Z,12.93
2022-11-03T21:56:19.152Z,13.43
2022-11-03T22:01:27.063Z,13.77
2022-11-03T22:06:35.415Z,11.97
2022-11-03T22:11:43.264Z,12.63
2022-11-03T22:16:51.534Z,12.83
2022-11-03T22:22:01.599Z,11.03
2022-11-03T22:27:09.869Z,12.37
2022-11-03T22:32:17.894Z,13.20
2022-11-03T22:37:27.313Z,13.00
2022-11-03T22:42:36.768Z,12.70
2022-11-03T22:47:44.743Z,12.70
2022-11-03T22:52:52.616Z,12.43
2022-11-03T22:58:00.544Z,14.10
2022-11-03T23:03:09.323Z,12.27
2022-11-03T23:08:17.715Z,13.10
2022-11-03T23:13:26.067Z,12.27
2022-11-03T23:18:35.439Z,12.57
2022-11-03T23:23:45.766Z,12.90
2022-11-03T23:28:53.675Z,13.23
2022-11-03T23:34:01.562Z,13.33
2022-11-03T23:39:11.052Z,13.07
2022-11-03T23:44:19.349Z,12.47
2022-11-03T23:49:27.586Z,12.70
2022-11-03T23:54:35.686Z,12.10
